createdAt,value
2022-09-25T00:00:41.079Z,98991.34
2022-09-25T00:03:14.974Z,98989.09
2022-09-25T00:05:49.397Z,98990.53
2022-09-25T00:08:21.051Z,98989.72
2022-09-25T00:10:52.694Z,98990.53
2022-09-25T00:13:24.305Z,98984.59
2022-09-25T00:15:57.375Z,98976.03
2022-09-25T00:18:55.678Z,98980.09
2022-09-25T00:21:31.112Z,98989.66
2022-09-25T00:24:13.187Z,98984.56
2022-09-25T00:26:44.930Z,98982.53
2022-09-25T00:29:20.422Z,98977.22
2022-09-25T00:31:58.177Z,98972.94
2022-09-25T00:34:32.291Z,98970.28
2022-09-25T00:37:04.520Z,98972.94
2022-09-25T00:39:42.178Z,98970.09
2022-09-25T00:42:19.250Z,98965.25
2022-09-25T00:44:58.913Z,98968.50
2022-09-25T00:48:03.193Z,98965.66
2022-09-25T00:50:52.474Z,98970.81
2022-09-25T00:53:31.566Z,98973.47
2022-09-25T00:56:05.226Z,98966.31
2022-09-25T00:58:40.344Z,98967.13
2022-09-25T01:01:12.227Z,98963.81
2022-09-25T01:03:46.610Z,98965.66
2022-09-25T01:06:18.750Z,98963.66
2022-09-25T01:08:57.678Z,98961.81
2022-09-25T01:11:31.097Z,98955.50
2022-09-25T01:14:05.955Z,98954.31
2022-09-25T01:16:52.004Z,98961.03
2022-09-25T01:19:40.959Z,98958.19
2022-09-25T01:22:46.364Z,98960.25
2022-09-25T01:25:23.959Z,98964.09
2022-09-25T01:28:39.560Z,98961.44
2022-09-25T01:31:22.246Z,98964.84
2022-09-25T01:34:03.911Z,98969.31
2022-09-25T01:36:41.659Z,98961.34
2022-09-25T01:39:32.464Z,98958.53
2022-09-25T01:42:23.694Z,98962.63
2022-09-25T01:45:04.238Z,98953.47
2022-09-25T01:47:41.720Z,98951.19
2022-09-25T01:50:28.642Z,98962.63
2022-09-25T01:53:07.409Z,98951.41
2022-09-25T01:55:49.218Z,98946.13
2022-09-25T01:58:35.702Z,98944.44
2022-09-25T02:01:18.055Z,98954.81
2022-09-25T02:04:04.733Z,98950.53
2022-09-25T02:06:38.496Z,98955.19
2022-09-25T02:09:19.041Z,98952.53
2022-09-25T02:11:56.352Z,98944.59
2022-09-25T02:14:40.152Z,98942.16
2022-09-25T02:17:34.985Z,98947.81
2022-09-25T02:20:26.585Z,98941.50
2022-09-25T02:23:23.659Z,98945.81
2022-09-25T02:26:08.654Z,98930.91
2022-09-25T02:28:45.643Z,98941.31
2022-09-25T02:31:19.516Z,98940.28
2022-09-25T02:33:51.527Z,98939.28
2022-09-25T02:36:24.130Z,98935.19
2022-09-25T02:38:56.320Z,98935.56
2022-09-25T02:41:43.828Z,98934.16
2022-09-25T02:44:33.639Z,98928.22
2022-09-25T02:47:43.643Z,98920.25
2022-09-25T02:50:37.271Z,98925.75
2022-09-25T02:53:20.839Z,98921.44
2022-09-25T02:56:35.182Z,98924.91
2022-09-25T02:59:34.167Z,98924.31
2022-09-25T03:02:08.996Z,98919.38
2022-09-25T03:04:42.418Z,98923.88
2022-09-25T03:07:15.898Z,98917.97
2022-09-25T03:09:54.994Z,98910.38
2022-09-25T03:12:28.618Z,98915.88
2022-09-25T03:15:00.219Z,98921.16
2022-09-25T03:17:33.680Z,98918.03
2022-09-25T03:20:07.128Z,98918.03
2022-09-25T03:22:39.636Z,98914.72
2022-09-25T03:25:11.209Z,98910.63
2022-09-25T03:27:46.858Z,98909.16
2022-09-25T03:30:18.796Z,98908.97
2022-09-25T03:32:50.425Z,98908.38
2022-09-25T03:35:22.067Z,98917.13
2022-09-25T03:38:00.501Z,98918.75
2022-09-25T03:40:35.215Z,98913.47
2022-09-25T03:45:41.904Z,98913.22
2022-09-25T03:48:13.550Z,98913.41
2022-09-25T03:50:46.171Z,98915.88
2022-09-25T03:53:20.649Z,98912.03
2022-09-25T03:55:52.604Z,98915.50
2022-09-25T03:58:25.292Z,98910.19
2022-09-25T04:00:57.740Z,98904.91
2022-09-25T04:03:32.836Z,98910.19
2022-09-25T04:06:05.881Z,98904.69
2022-09-25T04:08:38.162Z,98915.94
2022-09-25T04:11:10.799Z,98907.34
2022-09-25T04:13:43.599Z,98907.34
2022-09-25T04:16:21.697Z,98912.63
2022-09-25T04:18:53.375Z,98917.13
2022-09-25T04:21:50.002Z,98915.94
2022-09-25T04:24:40.113Z,98918.75
2022-09-25T04:27:11.704Z,98929.19
2022-09-25T04:29:43.444Z,98918.75
2022-09-25T04:32:35.011Z,98928.34
2022-09-25T04:35:09.774Z,98924.88
2022-09-25T04:37:41.405Z,98924.06
2022-09-25T04:40:13.103Z,98930.38
2022-09-25T04:42:44.749Z,98923.44
2022-09-25T04:45:16.395Z,98928.94
2022-09-25T04:47:47.993Z,98928.47
2022-09-25T04:50:23.246Z,98924.41
2022-09-25T04:52:57.198Z,98931.53
2022-09-25T04:55:29.272Z,98931.72
2022-09-25T04:58:04.388Z,98933.09
2022-09-25T05:00:37.512Z,98933.28
2022-09-25T05:03:09.470Z,98928.19
2022-09-25T05:05:41.245Z,98929.22
2022-09-25T05:08:12.894Z,98928.38
2022-09-25T05:10:44.637Z,98934.28
2022-09-25T05:13:16.227Z,98936.13
2022-09-25T05:15:47.898Z,98926.34
2022-09-25T05:18:24.885Z,98924.09
2022-09-25T05:20:58.030Z,98927.94
2022-09-25T05:23:32.785Z,98922.09
2022-09-25T05:26:04.238Z,98927.41
2022-09-25T05:28:38.958Z,98927.47
2022-09-25T05:31:10.738Z,98933.66
2022-09-25T05:33:46.327Z,98937.19
2022-09-25T05:36:19.096Z,98929.47
2022-09-25T05:38:50.942Z,98933.63
2022-09-25T05:41:24.650Z,98927.63
2022-09-25T05:43:57.493Z,98924.72
2022-09-25T05:46:29.111Z,98928.13
2022-09-25T05:49:01.233Z,98928.00
2022-09-25T05:51:32.985Z,98921.47
2022-09-25T05:54:05.000Z,98922.97
2022-09-25T05:56:39.607Z,98925.50
2022-09-25T05:59:11.036Z,98923.84
2022-09-25T06:01:43.012Z,98931.13
2022-09-25T06:04:14.635Z,98931.50
2022-09-25T06:06:46.350Z,98925.97
2022-09-25T06:09:23.441Z,98923.25
2022-09-25T06:11:57.186Z,98919.44
2022-09-25T06:14:28.898Z,98924.56
2022-09-25T06:20:00.570Z,98919.84
2022-09-25T06:22:32.953Z,98920.34
2022-09-25T06:25:05.300Z,98922.47
2022-09-25T06:27:40.576Z,98918.25
2022-09-25T06:30:12.528Z,98920.13
2022-09-25T06:32:44.413Z,98920.44
2022-09-25T06:35:18.335Z,98913.72
2022-09-25T06:37:58.261Z,98910.34
2022-09-25T06:40:31.612Z,98908.72
2022-09-25T06:43:04.687Z,98914.97
2022-09-25T06:45:39.446Z,98910.56
2022-09-25T06:48:16.295Z,98907.94
2022-09-25T06:50:55.189Z,98904.00
2022-09-25T06:53:27.129Z,98902.50
2022-09-25T06:55:59.965Z,98904.03
2022-09-25T06:58:31.691Z,98904.84
2022-09-25T07:01:09.109Z,98903.97
2022-09-25T07:03:51.182Z,98897.88
2022-09-25T07:06:26.568Z,98899.53
2022-09-25T07:08:58.270Z,98896.28
2022-09-25T07:11:31.378Z,98893.50
2022-09-25T07:14:04.182Z,98903.66
2022-09-25T07:16:36.227Z,98911.84
2022-09-25T07:19:09.344Z,98909.50
2022-09-25T07:21:41.039Z,98918.50
2022-09-25T07:24:12.744Z,98913.47
2022-09-25T07:26:44.555Z,98908.16
2022-09-25T07:29:16.474Z,98902.50
2022-09-25T07:31:48.118Z,98909.00
2022-09-25T07:34:19.916Z,98909.06
2022-09-25T07:36:53.017Z,98905.63
2022-09-25T07:39:24.770Z,98911.19
2022-09-25T07:41:56.445Z,98908.41
2022-09-25T07:44:29.404Z,98903.13
2022-09-25T07:47:08.803Z,98909.13
2022-09-25T07:49:41.349Z,98894.25
2022-09-25T07:52:13.899Z,98895.44
2022-09-25T07:54:45.555Z,98894.13
2022-09-25T07:57:20.756Z,98895.88
2022-09-25T07:59:52.415Z,98898.09
2022-09-25T08:02:24.521Z,98887.00
2022-09-25T08:04:56.355Z,98885.25
2022-09-25T08:07:28.596Z,98884.53
2022-09-25T08:10:00.510Z,98879.34
2022-09-25T08:12:32.220Z,98876.25
2022-09-25T08:15:04.279Z,98868.19
2022-09-25T08:17:36.070Z,98872.19
2022-09-25T08:20:08.377Z,98865.66
2022-09-25T08:22:39.958Z,98863.56
2022-09-25T08:25:13.125Z,98860.22
2022-09-25T08:27:45.607Z,98856.50
2022-09-25T08:30:17.963Z,98865.22
2022-09-25T08:32:50.615Z,98863.59
2022-09-25T08:35:22.385Z,98864.31
2022-09-25T08:37:57.859Z,98856.00
2022-09-25T08:40:39.881Z,98852.78
2022-09-25T08:43:22.023Z,98859.72
2022-09-25T08:46:16.587Z,98848.44
2022-09-25T08:49:10.113Z,98851.41
2022-09-25T08:51:48.829Z,98848.00
2022-09-25T08:54:26.703Z,98849.53
2022-09-25T08:57:35.168Z,98849.44
2022-09-25T09:00:17.347Z,98851.34
2022-09-25T09:02:54.682Z,98861.94
2022-09-25T09:05:32.516Z,98857.59
2022-09-25T09:08:09.726Z,98851.56
2022-09-25T09:10:45.824Z,98850.81
2022-09-25T09:13:24.708Z,98849.28
2022-09-25T09:16:01.493Z,98852.88
2022-09-25T09:18:39.567Z,98847.50
2022-09-25T09:21:18.810Z,98842.44
2022-09-25T09:24:06.206Z,98849.25
2022-09-25T09:26:56.897Z,98845.69
2022-09-25T09:29:55.052Z,98832.88
2022-09-25T09:32:48.656Z,98834.53
2022-09-25T09:35:53.621Z,98835.44
2022-09-25T09:39:08.929Z,98834.06
2022-09-25T09:41:50.242Z,98827.75
2022-09-25T09:44:37.117Z,98827.50
2022-09-25T09:48:02.142Z,98825.91
2022-09-25T09:50:53.178Z,98814.31
2022-09-25T09:54:11.349Z,98808.94
2022-09-25T09:56:47.808Z,98810.72
2022-09-25T09:59:25.663Z,98803.56
2022-09-25T10:02:13.748Z,98792.03
2022-09-25T10:04:46.932Z,98786.50
2022-09-25T10:07:22.893Z,98779.91
2022-09-25T10:09:55.725Z,98779.31
2022-09-25T10:12:36.034Z,98782.34
2022-09-25T10:15:18.834Z,98784.06
2022-09-25T10:17:50.875Z,98792.31
2022-09-25T10:20:23.758Z,98785.59
2022-09-25T10:22:56.655Z,98776.41
2022-09-25T10:25:40.335Z,98777.50
2022-09-25T10:28:32.769Z,98774.50
2022-09-25T10:31:09.001Z,98777.06
2022-09-25T10:33:40.733Z,98784.69
2022-09-25T10:36:12.357Z,98779.97
2022-09-25T10:38:43.879Z,98773.94
2022-09-25T10:41:19.976Z,98777.47
2022-09-25T10:43:53.787Z,98774.44
2022-09-25T10:46:55.076Z,98777.22
2022-09-25T10:49:46.954Z,98775.41
2022-09-25T10:52:22.322Z,98764.75
2022-09-25T10:55:14.764Z,98763.00
2022-09-25T10:57:48.007Z,98767.41
2022-09-25T11:00:24.450Z,98771.28
2022-09-25T11:03:01.683Z,98765.13
2022-09-25T11:05:38.402Z,98764.47
2022-09-25T11:08:16.277Z,98763.75
2022-09-25T11:10:57.049Z,98753.94
2022-09-25T11:13:37.044Z,98754.88
2022-09-25T11:16:10.320Z,98763.53
2022-09-25T11:19:29.050Z,98760.91
2022-09-25T11:22:08.042Z,98755.06
2022-09-25T11:25:02.265Z,98763.16
2022-09-25T11:27:43.732Z,98764.09
2022-09-25T11:30:18.496Z,98761.50
2022-09-25T11:32:58.434Z,98767.25
2022-09-25T11:35:53.163Z,98763.06
2022-09-25T11:38:52.337Z,98767.16
2022-09-25T11:41:45.703Z,98763.38
2022-09-25T11:44:31.478Z,98758.28
2022-09-25T11:47:27.733Z,98750.84
2022-09-25T11:50:02.246Z,98752.16
2022-09-25T11:52:46.059Z,98750.81
2022-09-25T11:55:45.862Z,98751.13
2022-09-25T11:58:26.701Z,98749.25
2022-09-25T12:01:16.878Z,98748.09
2022-09-25T12:04:00.429Z,98746.25
2022-09-25T12:06:53.268Z,98744.94
2022-09-25T12:09:54.597Z,98737.41
2022-09-25T12:12:35.310Z,98734.47
2022-09-25T12:15:45.503Z,98728.81
2022-09-25T12:18:22.703Z,98730.72
2022-09-25T12:21:20.134Z,98729.91
2022-09-25T12:24:07.919Z,98729.47
2022-09-25T12:27:01.035Z,98725.09
2022-09-25T12:29:39.856Z,98731.09
2022-09-25T12:32:32.501Z,98731.44
2022-09-25T12:35:29.510Z,98722.81
2022-09-25T12:38:17.805Z,98730.72
2022-09-25T12:41:01.156Z,98715.84
2022-09-25T12:43:45.390Z,98721.63
2022-09-25T12:46:39.196Z,98721.81
2022-09-25T12:49:21.303Z,98712.75
2022-09-25T12:51:59.678Z,98704.47
2022-09-25T12:54:43.805Z,98694.03
2022-09-25T12:57:26.361Z,98695.66
2022-09-25T13:00:01.895Z,98697.41
2022-09-25T13:02:40.968Z,98695.09
2022-09-25T13:05:31.829Z,98687.09
2022-09-25T13:08:25.711Z,98690.78
2022-09-25T13:11:07.825Z,98692.41
2022-09-25T13:13:47.235Z,98687.38
2022-09-25T13:16:19.048Z,98679.06
2022-09-25T13:19:12.877Z,98691.16
2022-09-25T13:21:44.500Z,98685.47
2022-09-25T13:24:17.630Z,98689.13
2022-09-25T13:26:55.154Z,98680.13
2022-09-25T13:29:31.229Z,98688.19
2022-09-25T13:32:23.170Z,98687.09
2022-09-25T13:34:58.543Z,98682.94
2022-09-25T13:37:39.247Z,98684.56
2022-09-25T13:40:46.102Z,98684.25
2022-09-25T13:43:27.907Z,98668.34
2022-09-25T13:46:19.291Z,98667.63
2022-09-25T13:48:55.763Z,98659.72
2022-09-25T13:51:35.517Z,98657.03
2022-09-25T13:54:09.806Z,98657.28
2022-09-25T13:56:41.366Z,98657.59
2022-09-25T13:59:13.860Z,98659.56
2022-09-25T14:01:53.942Z,98666.00
2022-09-25T14:04:36.635Z,98657.88
2022-09-25T14:07:25.417Z,98654.16
2022-09-25T14:10:00.324Z,98655.22
2022-09-25T14:12:42.639Z,98652.53
2022-09-25T14:15:22.818Z,98661.06
2022-09-25T14:17:57.532Z,98656.69
2022-09-25T14:20:29.098Z,98658.69
2022-09-25T14:23:11.955Z,98653.41
2022-09-25T14:25:46.819Z,98649.59
2022-09-25T14:28:30.542Z,98651.00
2022-09-25T14:31:31.847Z,98652.66
2022-09-25T14:34:21.884Z,98647.84
2022-09-25T14:37:15.682Z,98637.75
2022-09-25T14:39:54.239Z,98632.44
2022-09-25T14:42:45.799Z,98636.50
2022-09-25T14:45:35.657Z,98637.13
2022-09-25T14:48:31.758Z,98634.38
2022-09-25T14:51:25.503Z,98630.00
2022-09-25T14:54:02.485Z,98632.34
2022-09-25T14:56:36.898Z,98632.69
2022-09-25T14:59:10.950Z,98626.28
2022-09-25T15:01:49.522Z,98622.59
2022-09-25T15:04:32.368Z,98616.22
2022-09-25T15:07:23.867Z,98615.97
2022-09-25T15:09:56.096Z,98617.34
2022-09-25T15:12:33.900Z,98622.69
2022-09-25T15:15:13.858Z,98619.16
2022-09-25T15:17:50.881Z,98614.97
2022-09-25T15:20:27.149Z,98623.81
2022-09-25T15:23:03.756Z,98621.47
2022-09-25T15:25:47.468Z,98618.38
2022-09-25T15:28:25.397Z,98621.88
2022-09-25T15:31:03.746Z,98612.06
2022-09-25T15:33:38.341Z,98612.00
2022-09-25T15:36:22.249Z,98605.44
2022-09-25T15:39:09.039Z,98608.91
2022-09-25T15:41:45.019Z,98612.97
2022-09-25T15:44:25.168Z,98613.22
2022-09-25T15:47:00.701Z,98615.19
2022-09-25T15:49:43.803Z,98613.88
2022-09-25T15:52:32.689Z,98610.13
2022-09-25T15:55:14.770Z,98614.19
2022-09-25T15:57:51.555Z,98618.94
2022-09-25T16:00:44.272Z,98609.75
2022-09-25T16:03:43.741Z,98611.06
2022-09-25T16:06:16.760Z,98610.47
2022-09-25T16:08:48.388Z,98602.56
2022-09-25T16:11:26.637Z,98608.44
2022-09-25T16:14:29.340Z,98600.31
2022-09-25T16:17:01.062Z,98595.94
2022-09-25T16:19:34.113Z,98600.94
2022-09-25T16:22:23.272Z,98602.50
2022-09-25T16:24:55.282Z,98593.81
2022-09-25T16:27:32.686Z,98597.78
2022-09-25T16:30:09.137Z,98594.53
2022-09-25T16:32:48.063Z,98596.91
2022-09-25T16:35:57.465Z,98593.06
2022-09-25T17:17:32.605Z,98587.22
2022-09-25T17:20:04.729Z,98585.59
2022-09-25T17:26:10.900Z,98586.81
2022-09-25T17:28:42.866Z,98583.19
2022-09-25T17:31:16.855Z,98582.03
2022-09-25T17:33:50.200Z,98591.75
2022-09-25T17:36:22.016Z,98597.78
2022-09-25T17:38:53.632Z,98590.72
2022-09-25T17:41:36.286Z,98602.09
2022-09-25T17:44:13.698Z,98602.53
2022-09-25T17:46:45.819Z,98600.56
2022-09-25T17:49:18.257Z,98600.78
2022-09-25T17:51:50.507Z,98610.91
2022-09-25T17:54:22.114Z,98607.88
2022-09-25T17:56:53.740Z,98603.00
2022-09-25T17:59:25.471Z,98606.94
2022-09-25T18:02:01.622Z,98603.09
2022-09-25T18:04:33.217Z,98606.47
2022-09-25T18:07:06.604Z,98605.28
2022-09-25T18:09:38.338Z,98605.16
2022-09-25T18:12:12.625Z,98611.19
2022-09-25T18:14:45.841Z,98618.59
2022-09-25T18:17:17.486Z,98619.88
2022-09-25T18:20:09.075Z,98621.72
2022-09-25T18:22:41.427Z,98620.09
2022-09-25T18:25:13.211Z,98619.28
2022-09-25T18:27:45.091Z,98619.50
2022-09-25T18:30:21.838Z,98621.59
2022-09-25T18:32:53.714Z,98619.16
2022-09-25T18:35:25.997Z,98616.13
2022-09-25T18:37:59.390Z,98625.97
2022-09-25T18:40:31.240Z,98612.88
2022-09-25T18:43:02.989Z,98622.94
2022-09-25T18:45:35.694Z,98624.56
2022-09-25T18:48:08.199Z,98634.00
2022-09-25T18:50:45.872Z,98631.31
2022-09-25T18:53:20.949Z,98636.16
2022-09-25T18:55:58.182Z,98631.28
2022-09-25T18:59:00.252Z,98638.59
2022-09-25T19:01:32.304Z,98640.31
2022-09-25T19:04:07.652Z,98640.53
2022-09-25T19:06:43.106Z,98640.88
2022-09-25T19:09:16.999Z,98641.47
2022-09-25T19:11:49.342Z,98647.50
2022-09-25T19:14:22.089Z,98646.31
2022-09-25T19:16:53.852Z,98644.63
2022-09-25T19:19:25.847Z,98647.56
2022-09-25T19:21:57.418Z,98649.75
2022-09-25T19:24:30.747Z,98652.47
2022-09-25T19:27:12.320Z,98651.03
2022-09-25T19:29:47.612Z,98656.47
2022-09-25T19:32:19.613Z,98665.47
2022-09-25T19:34:51.894Z,98658.16
2022-09-25T19:37:26.336Z,98658.34
2022-09-25T19:40:16.996Z,98653.84
2022-09-25T19:42:49.891Z,98649.72
2022-09-25T19:45:22.349Z,98647.31
2022-09-25T19:47:54.009Z,98641.03
2022-09-25T19:50:25.824Z,98639.19
2022-09-25T19:52:57.463Z,98641.09
2022-09-25T19:55:36.990Z,98641.69
2022-09-25T19:58:10.224Z,98635.19
2022-09-25T20:00:42.481Z,98631.47
2022-09-25T20:03:14.434Z,98630.22
2022-09-25T20:05:48.901Z,98635.69
2022-09-25T20:08:21.246Z,98628.31
2022-09-25T20:10:52.937Z,98625.47
2022-09-25T20:13:30.224Z,98639.03
2022-09-25T20:16:14.395Z,98633.50
2022-09-25T20:19:03.050Z,98635.50
2022-09-25T20:21:37.261Z,98631.59
2022-09-25T20:24:10.045Z,98635.06
2022-09-25T20:26:41.826Z,98641.69
2022-09-25T20:29:15.496Z,98641.09
2022-09-25T20:31:51.176Z,98644.78
2022-09-25T20:34:24.798Z,98641.78
2022-09-25T20:36:56.938Z,98638.09
2022-09-25T20:39:28.514Z,98641.34
2022-09-25T20:42:00.144Z,98639.06
2022-09-25T20:44:31.760Z,98639.06
2022-09-25T20:47:03.376Z,98637.22
2022-09-25T20:49:36.147Z,98637.22
2022-09-25T20:52:09.748Z,98643.56
2022-09-25T20:54:41.758Z,98643.38
2022-09-25T20:57:13.415Z,98642.53
2022-09-25T20:59:45.006Z,98643.66
2022-09-25T21:02:16.789Z,98631.56
2022-09-25T21:04:50.929Z,98632.00
2022-09-25T21:07:25.692Z,98635.31
2022-09-25T21:09:57.299Z,98633.34
2022-09-25T21:12:28.976Z,98631.13
2022-09-25T21:15:03.377Z,98631.16
2022-09-25T21:17:35.584Z,98628.09
2022-09-25T21:20:07.573Z,98632.22
2022-09-25T21:22:40.247Z,98628.78
2022-09-25T21:25:11.956Z,98618.13
2022-09-25T21:27:43.571Z,98614.91
2022-09-25T21:30:15.565Z,98605.88
2022-09-25T21:32:47.493Z,98601.00
2022-09-25T21:35:19.282Z,98608.16
2022-09-25T21:37:50.895Z,98601.81
2022-09-25T21:40:22.559Z,98605.69
2022-09-25T21:42:55.279Z,98601.03
2022-09-25T21:45:31.488Z,98606.34
2022-09-25T21:48:03.138Z,98614.94
2022-09-25T21:50:34.705Z,98610.00
2022-09-25T21:53:06.362Z,98606.09
2022-09-25T21:55:37.956Z,98603.22
2022-09-25T21:58:09.575Z,98604.03
2022-09-25T22:00:41.773Z,98599.31
2022-09-25T22:03:13.425Z,98600.34
2022-09-25T22:05:45.046Z,98596.06
2022-09-25T22:08:16.637Z,98598.50
2022-09-25T22:10:58.345Z,98595.03
2022-09-25T22:13:33.809Z,98595.22
2022-09-25T22:16:13.578Z,98595.22
2022-09-25T22:18:49.844Z,98590.16
2022-09-25T22:21:26.450Z,98591.22
2022-09-25T22:23:59.353Z,98584.47
2022-09-25T22:26:36.298Z,98581.59
2022-09-25T22:29:08.527Z,98591.22
2022-09-25T22:31:43.442Z,98583.22
2022-09-25T22:34:22.366Z,98577.72
2022-09-25T22:36:59.501Z,98579.34
2022-09-25T22:39:31.337Z,98573.22
2022-09-25T22:42:04.378Z,98583.03
2022-09-25T22:44:37.122Z,98582.00
2022-09-25T22:47:09.489Z,98586.72
2022-09-25T22:49:41.403Z,98588.75
2022-09-25T22:52:13.354Z,98580.19
2022-09-25T22:54:46.965Z,98573.25
2022-09-25T22:57:18.595Z,98579.47
2022-09-25T22:59:50.216Z,98566.19
2022-09-25T23:02:21.802Z,98565.53
2022-09-25T23:04:54.284Z,98565.72
2022-09-25T23:07:25.994Z,98565.50
2022-09-25T23:09:57.613Z,98565.09
2022-09-25T23:12:30.861Z,98557.50
2022-09-25T23:15:03.658Z,98550.34
2022-09-25T23:17:38.638Z,98555.66
2022-09-25T23:20:10.313Z,98562.63
2022-09-25T23:22:41.881Z,98564.25
2022-09-25T23:25:16.310Z,98568.50
2022-09-25T23:27:47.914Z,98573.63
2022-09-25T23:30:19.704Z,98567.28
2022-09-25T23:32:51.355Z,98561.16
2022-09-25T23:35:25.323Z,98557.69
2022-09-25T23:37:57.087Z,98555.22
2022-09-25T23:40:29.223Z,98559.97
2022-09-25T23:43:01.965Z,98547.31
2022-09-25T23:45:33.970Z,98549.97
2022-09-25T23:48:09.521Z,98546.72
2022-09-25T23:50:43.871Z,98542.22
2022-09-25T23:53:15.696Z,98543.66
2022-09-25T23:55:47.373Z,98548.38
2022-09-25T23:58:19.001Z,98543.06
